createdAt,value
2019-03-04T00:02:28.261Z,98079.00
2019-03-04T00:04:56.690Z,98071.19
2019-03-04T00:07:25.042Z,98072.20
2019-03-04T00:09:53.776Z,98067.45
2019-03-04T00:12:22.173Z,98066.16
2019-03-04T00:14:50.579Z,98062.73
2019-03-04T00:17:18.972Z,98059.27
2019-03-04T00:19:47.357Z,98069.94
2019-03-04T00:22:15.772Z,98068.64
2019-03-04T00:24:44.156Z,98060.70
2019-03-04T00:27:12.539Z,98054.17
2019-03-04T00:29:40.935Z,98051.95
2019-03-04T00:32:09.680Z,98051.50
2019-03-04T00:34:38.078Z,98041.44
2019-03-04T00:37:06.460Z,98036.22
2019-03-04T00:39:35.119Z,98042.77
2019-03-04T00:42:03.533Z,98030.94
2019-03-04T00:44:31.913Z,98025.24
2019-03-04T00:47:00.300Z,98020.80
2019-03-04T00:49:28.699Z,98012.45
2019-03-04T00:51:57.101Z,98017.22
2019-03-04T00:54:25.485Z,98014.11
2019-03-04T00:56:54.179Z,98017.56
2019-03-04T00:59:22.561Z,98017.16
2019-03-04T01:01:50.941Z,98008.38
2019-03-04T01:04:19.366Z,98008.80
2019-03-04T01:06:47.761Z,97994.36
2019-03-04T01:09:16.782Z,97989.09
2019-03-04T01:11:45.191Z,97985.56
2019-03-04T01:14:13.570Z,97981.20
2019-03-04T01:16:41.959Z,97980.76
2019-03-04T01:19:10.809Z,97982.98
2019-03-04T01:21:39.205Z,97979.55
2019-03-04T01:24:07.576Z,97974.31
2019-03-04T01:26:35.979Z,97961.55
2019-03-04T01:29:04.357Z,97946.74
2019-03-04T01:31:32.808Z,97943.75
2019-03-04T01:34:01.183Z,97939.40
2019-03-04T01:36:29.576Z,97926.71
2019-03-04T01:38:58.278Z,97932.47
2019-03-04T01:41:27.026Z,97928.95
2019-03-04T01:43:55.411Z,97919.31
2019-03-04T01:46:23.812Z,97896.52
2019-03-04T01:48:52.195Z,97900.95
2019-03-04T01:51:20.588Z,97883.86
2019-03-04T01:53:49.477Z,97865.81
2019-03-04T01:56:17.877Z,97851.81
2019-03-04T01:58:46.252Z,97833.91
2019-03-04T02:01:14.660Z,97830.31
2019-03-04T02:03:43.053Z,97826.86
2019-03-04T02:06:11.444Z,97815.90
2019-03-04T02:08:40.659Z,97817.62
2019-03-04T02:11:09.050Z,97811.49
2019-03-04T02:13:37.793Z,97820.20
2019-03-04T02:16:06.261Z,97815.84
2019-03-04T02:18:34.644Z,97823.73
2019-03-04T02:21:03.044Z,97829.91
2019-03-04T02:23:31.427Z,97840.47
2019-03-04T02:26:05.739Z,97834.36
2019-03-04T02:28:34.228Z,97839.21
2019-03-04T02:31:02.687Z,97830.80
2019-03-04T02:33:31.084Z,97834.28
2019-03-04T02:35:59.568Z,97823.79
2019-03-04T02:38:27.921Z,97817.22
2019-03-04T02:40:56.599Z,97802.78
2019-03-04T02:43:24.993Z,97794.92
2019-03-04T02:45:53.383Z,97802.78
2019-03-04T02:48:22.079Z,97783.53
2019-03-04T02:50:50.455Z,97762.14
2019-03-04T02:53:18.837Z,97767.81
2019-03-04T02:55:47.220Z,97756.44
2019-03-04T02:58:15.968Z,97760.44
2019-03-04T03:00:44.354Z,97762.22
2019-03-04T03:03:12.746Z,97752.94
2019-03-04T03:05:41.135Z,97755.06
2019-03-04T03:08:09.789Z,97752.79
2019-03-04T03:10:38.175Z,97729.06
2019-03-04T03:13:06.568Z,97716.70
2019-03-04T03:15:34.952Z,97701.73
2019-03-04T03:18:03.392Z,97691.19
2019-03-04T03:20:31.766Z,97676.75
2019-03-04T03:23:00.155Z,97659.66
2019-03-04T03:25:28.543Z,97652.58
2019-03-04T03:27:56.944Z,97655.20
2019-03-04T03:30:25.358Z,97653.45
2019-03-04T03:32:53.754Z,97659.16
2019-03-04T03:35:22.141Z,97670.98
2019-03-04T03:37:50.594Z,97672.23
2019-03-04T03:40:21.910Z,97653.42
2019-03-04T03:42:50.305Z,97638.92
2019-03-04T03:45:18.902Z,97601.63
2019-03-04T03:47:47.285Z,97600.78
2019-03-04T03:50:16.927Z,97581.91
2019-03-04T03:52:46.039Z,97606.92
2019-03-04T03:55:16.065Z,97596.03
2019-03-04T03:57:44.489Z,97592.13
2019-03-04T04:00:24.176Z,97551.83
2019-03-04T04:02:52.635Z,97561.70
2019-03-04T04:05:21.048Z,97558.23
2019-03-04T04:07:49.678Z,97563.09
2019-03-04T04:10:19.459Z,97563.09
2019-03-04T04:12:48.347Z,97550.05
2019-03-04T04:15:18.756Z,97528.56
2019-03-04T04:17:47.223Z,97501.86
2019-03-04T04:20:15.638Z,97497.55
2019-03-04T04:22:44.089Z,97483.52
2019-03-04T04:25:13.392Z,97508.11
2019-03-04T04:27:41.863Z,97497.59
2019-03-04T04:30:17.012Z,97477.50
2019-03-04T04:32:45.416Z,97468.70
2019-03-04T04:35:13.998Z,97447.73
2019-03-04T04:37:42.361Z,97411.36
2019-03-04T04:40:12.648Z,97404.31
2019-03-04T04:42:41.037Z,97410.48
2019-03-04T04:45:10.247Z,97393.20
2019-03-04T04:47:39.580Z,97378.27
2019-03-04T04:50:16.625Z,97347.94
2019-03-04T04:52:45.008Z,97376.20
2019-03-04T04:55:13.402Z,97426.25
2019-03-04T04:57:42.169Z,97389.50
2019-03-04T05:00:16.180Z,97360.53
2019-03-04T05:02:44.565Z,97360.66
2019-03-04T05:05:13.487Z,97384.40
2019-03-04T05:07:41.898Z,97399.30
2019-03-04T05:10:16.087Z,97379.39
2019-03-04T05:12:44.983Z,97340.49
2019-03-04T05:15:15.223Z,97341.84
2019-03-04T05:17:43.616Z,97358.94
2019-03-04T05:20:15.091Z,97335.19
2019-03-04T05:22:43.472Z,97343.48
2019-03-04T05:25:11.995Z,97337.82
2019-03-04T05:27:40.393Z,97318.45
2019-03-04T05:30:11.984Z,97336.38
2019-03-04T05:32:41.297Z,97351.66
2019-03-04T05:35:09.748Z,97340.73
2019-03-04T05:37:38.142Z,97321.53
2019-03-04T05:40:12.711Z,97341.25
2019-03-04T05:42:41.173Z,97339.94
2019-03-04T05:45:15.191Z,97274.30
2019-03-04T05:47:43.607Z,97294.07
2019-03-04T05:50:25.540Z,97316.38
2019-03-04T05:52:53.949Z,97289.33
2019-03-04T05:55:22.403Z,97272.87
2019-03-04T05:57:51.067Z,97278.69
2019-03-04T06:00:24.997Z,97260.17
2019-03-04T06:02:56.668Z,97268.17
2019-03-04T06:05:25.057Z,97260.05
2019-03-04T06:08:01.608Z,97249.13
2019-03-04T06:10:30.065Z,97219.56
2019-03-04T06:12:59.027Z,97231.08
2019-03-04T06:15:27.530Z,97208.69
2019-03-04T06:17:55.921Z,97249.48
2019-03-04T06:20:24.360Z,97356.71
2019-03-04T06:22:52.781Z,97386.37
2019-03-04T06:25:26.172Z,97384.18
2019-03-04T06:27:54.554Z,97409.58
2019-03-04T06:30:25.031Z,97446.22
2019-03-04T06:32:53.417Z,97464.31
2019-03-04T06:35:21.787Z,97457.97
2019-03-04T06:37:50.624Z,97421.67
2019-03-04T06:40:20.544Z,97412.29
2019-03-04T06:42:49.289Z,97412.48
2019-03-04T06:45:20.157Z,97384.71
2019-03-04T06:47:49.412Z,97379.55
2019-03-04T06:50:46.564Z,97373.42
2019-03-04T06:53:18.006Z,97362.14
2019-03-04T06:56:01.426Z,97385.63
2019-03-04T06:58:30.450Z,97372.95
2019-03-04T07:01:01.675Z,97413.36
2019-03-04T07:03:30.088Z,97353.63
2019-03-04T07:05:58.481Z,97397.11
2019-03-04T07:08:39.173Z,97390.95
2019-03-04T07:11:07.633Z,97409.72
2019-03-04T07:13:36.017Z,97376.57
2019-03-04T07:16:05.595Z,97374.33
2019-03-04T07:18:33.998Z,97380.42
2019-03-04T07:21:02.392Z,97369.92
2019-03-04T07:23:31.556Z,97365.56
2019-03-04T07:25:59.937Z,97382.48
2019-03-04T07:28:28.341Z,97397.25
2019-03-04T07:30:57.024Z,97404.55
2019-03-04T07:33:25.414Z,97390.88
2019-03-04T07:35:54.146Z,97419.59
2019-03-04T07:38:25.659Z,97430.79
2019-03-04T07:40:54.056Z,97429.78
2019-03-04T07:43:22.449Z,97445.91
2019-03-04T07:45:50.827Z,97449.84
2019-03-04T07:48:19.222Z,97444.52
2019-03-04T07:50:47.607Z,97459.81
2019-03-04T07:53:16.056Z,97447.24
2019-03-04T07:55:44.440Z,97459.27
2019-03-04T07:58:12.842Z,97447.59
2019-03-04T08:00:41.764Z,97457.43
2019-03-04T08:03:10.157Z,97437.97
2019-03-04T08:05:38.534Z,97441.63
2019-03-04T08:08:12.125Z,97444.93
2019-03-04T08:10:49.514Z,97454.08
2019-03-04T08:13:30.531Z,97444.03
2019-03-04T08:15:59.437Z,97455.02
2019-03-04T08:18:27.829Z,97452.05
2019-03-04T08:20:56.739Z,97441.63
2019-03-04T08:23:25.389Z,97438.55
2019-03-04T08:25:53.783Z,97439.37
2019-03-04T08:28:22.237Z,97441.45
2019-03-04T08:30:50.685Z,97442.83
2019-03-04T08:33:19.083Z,97438.23
2019-03-04T08:35:47.503Z,97435.22
2019-03-04T08:38:15.897Z,97442.06
2019-03-04T08:40:44.359Z,97434.20
2019-03-04T08:43:12.755Z,97440.75
2019-03-04T08:45:41.405Z,97432.03
2019-03-04T08:48:09.829Z,97432.83
2019-03-04T08:50:38.229Z,97437.23
2019-03-04T08:53:06.621Z,97444.73
2019-03-04T08:55:35.016Z,97447.34
2019-03-04T08:58:03.429Z,97435.62
2019-03-04T09:00:32.808Z,97451.35
2019-03-04T09:03:01.502Z,97434.83
2019-03-04T09:05:29.896Z,97446.18
2019-03-04T09:07:58.337Z,97423.06
2019-03-04T09:10:29.100Z,97459.23
2019-03-04T09:12:57.497Z,97442.74
2019-03-04T09:15:26.247Z,97445.19
2019-03-04T09:17:54.921Z,97422.52
2019-03-04T09:20:23.944Z,97427.31
2019-03-04T09:22:52.850Z,97420.78
2019-03-04T09:25:39.727Z,97432.96
2019-03-04T09:28:08.415Z,97430.72
2019-03-04T09:30:37.288Z,97412.33
2019-03-04T09:33:05.758Z,97427.44
2019-03-04T09:35:34.162Z,97438.30
2019-03-04T09:38:02.559Z,97436.12
2019-03-04T09:40:33.640Z,97443.55
2019-03-04T09:43:03.841Z,97436.45
2019-03-04T09:45:38.959Z,97436.30
2019-03-04T09:48:02.851Z,97425.16
2019-03-04T09:50:31.911Z,97434.73
2019-03-04T09:53:00.374Z,97424.92
2019-03-04T09:55:29.612Z,97425.34
2019-03-04T09:57:58.001Z,97415.16
2019-03-04T10:00:46.301Z,97413.68
2019-03-04T10:03:35.583Z,97404.84
2019-03-04T10:06:12.493Z,97392.70
2019-03-04T10:08:46.569Z,97427.63
2019-03-04T10:11:32.978Z,97387.86
2019-03-04T10:14:04.436Z,97411.22
2019-03-04T10:16:44.449Z,97406.27
2019-03-04T10:19:36.967Z,97425.31
2019-03-04T10:22:22.947Z,97420.06
2019-03-04T10:25:13.937Z,97428.37
2019-03-04T10:27:48.173Z,97429.10
2019-03-04T10:30:37.681Z,97431.45
2019-03-04T10:33:11.949Z,97430.25
2019-03-04T10:35:52.048Z,97415.97
2019-03-04T10:38:42.985Z,97428.10
2019-03-04T10:41:23.734Z,97434.25
2019-03-04T10:44:04.258Z,97453.72
2019-03-04T10:46:53.706Z,97458.59
2019-03-04T10:49:22.343Z,97460.18
2019-03-04T10:51:50.928Z,97446.58
2019-03-04T10:54:19.329Z,97439.20
2019-03-04T10:56:47.722Z,97430.64
2019-03-04T10:59:16.150Z,97441.98
2019-03-04T11:01:44.609Z,97436.98
2019-03-04T11:04:13.589Z,97428.77
2019-03-04T11:06:41.974Z,97441.05
2019-03-04T11:09:10.535Z,97453.08
2019-03-04T11:11:39.501Z,97458.95
2019-03-04T11:14:08.066Z,97463.06
2019-03-04T11:16:36.561Z,97433.84
2019-03-04T11:19:05.191Z,97453.91
2019-03-04T11:21:33.577Z,97451.58
2019-03-04T11:24:02.042Z,97452.73
2019-03-04T11:26:30.430Z,97450.62
2019-03-04T11:28:58.902Z,97446.19
2019-03-04T11:31:27.476Z,97440.15
2019-03-04T11:33:55.866Z,97431.14
2019-03-04T11:36:24.270Z,97440.87
2019-03-04T11:38:55.710Z,97452.30
2019-03-04T11:41:24.533Z,97442.69
2019-03-04T11:43:52.930Z,97455.17
2019-03-04T11:46:23.182Z,97454.36
2019-03-04T11:48:51.783Z,97461.73
2019-03-04T11:51:20.168Z,97479.35
2019-03-04T11:53:48.587Z,97485.14
2019-03-04T11:56:16.974Z,97465.42
2019-03-04T11:58:45.364Z,97473.88
2019-03-04T12:01:15.471Z,97473.88
2019-03-04T12:03:43.859Z,97467.22
2019-03-04T12:06:12.301Z,97461.27
2019-03-04T12:08:40.685Z,97463.52
2019-03-04T12:11:09.077Z,97457.49
2019-03-04T12:13:37.473Z,97469.38
2019-03-04T12:16:05.916Z,97470.77
2019-03-04T12:18:36.105Z,97475.16
2019-03-04T12:21:04.711Z,97484.91
2019-03-04T12:23:33.099Z,97472.03
2019-03-04T12:26:01.497Z,97485.18
2019-03-04T12:28:29.888Z,97496.56
2019-03-04T12:30:58.317Z,97502.70
2019-03-04T12:33:26.708Z,97503.16
2019-03-04T12:35:55.096Z,97488.02
2019-03-04T12:38:23.491Z,97492.46
2019-03-04T12:40:51.889Z,97489.50
2019-03-04T12:43:20.900Z,97491.75
2019-03-04T12:45:49.293Z,97499.66
2019-03-04T12:48:17.668Z,97507.14
2019-03-04T12:50:46.065Z,97514.39
2019-03-04T12:53:15.225Z,97557.18
2019-03-04T12:55:43.643Z,97577.20
2019-03-04T12:58:12.030Z,97628.87
2019-03-04T13:00:40.733Z,97644.04
2019-03-04T13:03:17.668Z,97651.27
2019-03-04T13:05:46.823Z,97654.56
2019-03-04T13:08:15.640Z,97669.09
2019-03-04T13:10:44.030Z,97674.39
2019-03-04T13:13:12.760Z,97680.09
2019-03-04T13:15:41.228Z,97679.64
2019-03-04T13:18:12.635Z,97681.00
2019-03-04T13:20:42.079Z,97700.17
2019-03-04T13:23:11.477Z,97711.45
2019-03-04T13:25:39.868Z,97717.97
2019-03-04T13:28:08.803Z,97708.00
2019-03-04T13:30:41.556Z,97701.47
2019-03-04T13:33:10.617Z,97702.38
2019-03-04T13:35:40.837Z,97726.74
2019-03-04T13:38:09.230Z,97743.25
2019-03-04T13:40:37.638Z,97749.72
2019-03-04T13:43:06.565Z,97757.09
2019-03-04T13:45:35.537Z,97766.66
2019-03-04T13:48:04.394Z,97766.66
2019-03-04T13:50:35.158Z,97784.44
2019-03-04T13:53:03.634Z,97791.73
2019-03-04T13:55:32.091Z,97798.59
2019-03-04T13:58:00.551Z,97806.67
2019-03-04T14:00:42.843Z,97804.55
2019-03-04T14:03:13.869Z,97821.95
2019-03-04T14:05:42.377Z,97826.30
2019-03-04T14:08:10.855Z,97829.80
2019-03-04T14:10:47.488Z,97841.97
2019-03-04T14:13:15.890Z,97843.28
2019-03-04T14:15:46.125Z,97849.00
2019-03-04T14:18:14.595Z,97853.77
2019-03-04T14:20:42.986Z,97866.84
2019-03-04T14:23:11.378Z,97872.55
2019-03-04T14:25:39.769Z,97882.55
2019-03-04T14:28:08.325Z,97879.11
2019-03-04T14:30:36.717Z,97887.44
2019-03-04T14:33:05.192Z,97891.83
2019-03-04T14:35:33.572Z,97900.56
2019-03-04T14:38:01.952Z,97914.94
2019-03-04T14:40:30.351Z,97914.46
2019-03-04T14:42:58.724Z,97911.84
2019-03-04T14:45:28.008Z,97918.74
2019-03-04T14:47:56.389Z,97924.77
2019-03-04T14:50:25.111Z,97922.16
2019-03-04T14:52:53.511Z,97931.68
2019-03-04T14:55:24.494Z,97934.30
2019-03-04T14:57:52.907Z,97929.10
2019-03-04T15:00:32.868Z,97938.69
2019-03-04T15:03:01.291Z,97943.92
2019-03-04T15:05:29.695Z,97948.73
2019-03-04T15:07:58.079Z,97956.88
2019-03-04T15:10:26.633Z,97956.94
2019-03-04T15:12:55.025Z,97956.04
2019-03-04T15:15:31.495Z,97967.42
2019-03-04T15:17:59.890Z,97974.37
2019-03-04T15:20:29.808Z,97979.62
2019-03-04T15:22:58.256Z,97978.77
2019-03-04T15:25:35.196Z,97994.89
2019-03-04T15:28:21.249Z,97992.70
2019-03-04T15:31:05.139Z,97997.03
2019-03-04T15:33:33.533Z,98000.55
2019-03-04T15:36:01.926Z,98010.12
2019-03-04T15:38:30.322Z,98009.23
2019-03-04T15:40:58.707Z,98020.11
2019-03-04T15:43:27.134Z,98018.28
2019-03-04T15:45:57.393Z,98022.14
2019-03-04T15:48:28.724Z,98027.30
2019-03-04T15:50:57.197Z,98028.20
2019-03-04T15:53:25.632Z,98032.99
2019-03-04T15:55:54.182Z,98037.78
2019-03-04T15:58:22.571Z,98038.22
2019-03-04T16:00:51.232Z,98033.43
2019-03-04T16:03:20.327Z,98030.38
2019-03-04T16:05:48.721Z,98037.83
2019-03-04T16:08:17.394Z,98039.48
2019-03-04T16:10:45.927Z,98037.35
2019-03-04T16:13:14.446Z,98043.00
2019-03-04T16:15:45.380Z,98037.86
2019-03-04T16:18:13.901Z,98051.41
2019-03-04T16:20:42.668Z,98051.41
2019-03-04T16:23:11.061Z,98053.48
2019-03-04T16:25:39.444Z,98055.97
2019-03-04T16:28:19.562Z,98056.28
2019-03-04T16:30:50.159Z,98056.22
2019-03-04T16:33:18.715Z,98060.05
2019-03-04T16:35:47.247Z,98063.05
2019-03-04T16:38:15.700Z,98060.81
2019-03-04T16:40:44.438Z,98069.51
2019-03-04T16:43:12.821Z,98065.16
2019-03-04T16:45:41.316Z,98068.22
2019-03-04T16:48:09.706Z,98078.77
2019-03-04T16:50:40.611Z,98081.78
2019-03-04T16:53:20.670Z,98090.95
2019-03-04T16:55:49.065Z,98091.42
2019-03-04T16:58:17.517Z,98097.16
2019-03-04T17:00:47.077Z,98094.14
2019-03-04T17:03:15.535Z,98097.18
2019-03-04T17:05:44.162Z,98100.27
2019-03-04T17:08:12.786Z,98106.43
2019-03-04T17:10:41.292Z,98113.39
2019-03-04T17:13:09.680Z,98102.12
2019-03-04T17:15:38.075Z,98109.10
2019-03-04T17:18:06.634Z,98106.55
2019-03-04T17:20:35.028Z,98107.47
2019-03-04T17:23:03.659Z,98112.72
2019-03-04T17:25:32.061Z,98118.39
2019-03-04T17:28:00.860Z,98124.95
2019-03-04T17:30:29.795Z,98119.30
2019-03-04T17:32:58.234Z,98133.30
2019-03-04T17:35:26.629Z,98132.88
2019-03-04T17:37:55.016Z,98131.16
2019-03-04T17:40:28.678Z,98128.98
2019-03-04T17:42:57.064Z,98136.41
2019-03-04T17:45:26.802Z,98138.19
2019-03-04T17:47:55.183Z,98143.88
2019-03-04T17:50:37.862Z,98150.89
2019-03-04T17:53:08.796Z,98144.77
2019-03-04T17:55:37.243Z,98157.45
2019-03-04T17:58:05.977Z,98162.73
2019-03-04T18:00:35.319Z,98168.42
2019-03-04T18:03:03.770Z,98168.00
2019-03-04T18:05:32.196Z,98167.58
2019-03-04T18:08:00.588Z,98175.90
2019-03-04T18:10:28.977Z,98178.47
2019-03-04T18:12:59.939Z,98181.03
2019-03-04T18:15:30.871Z,98185.80
2019-03-04T18:17:59.270Z,98189.31
2019-03-04T18:20:34.390Z,98189.78
2019-03-04T18:22:57.776Z,98189.36
2019-03-04T18:25:38.920Z,98196.38
2019-03-04T18:28:12.815Z,98194.66
2019-03-04T18:30:55.897Z,98199.08
2019-03-04T18:33:33.063Z,98208.67
2019-03-04T18:36:04.523Z,98213.49
2019-03-04T18:38:53.892Z,98219.16
2019-03-04T18:41:47.997Z,98213.48
2019-03-04T18:44:40.281Z,98211.31
2019-03-04T18:47:18.115Z,98206.51
2019-03-04T18:49:46.501Z,98205.62
2019-03-04T18:52:14.880Z,98202.16
2019-03-04T18:54:43.300Z,98204.78
2019-03-04T18:57:12.068Z,98213.05
2019-03-04T18:59:41.302Z,98217.84
2019-03-04T19:02:09.771Z,98220.91
2019-03-04T19:04:38.235Z,98219.58
2019-03-04T19:07:06.625Z,98224.38
2019-03-04T19:09:35.092Z,98232.67
2019-03-04T19:12:03.468Z,98225.68
2019-03-04T19:14:31.929Z,98232.23
2019-03-04T19:17:00.324Z,98235.72
2019-03-04T19:19:28.713Z,98237.03
2019-03-04T19:21:57.090Z,98231.78
2019-03-04T19:24:25.495Z,98238.34
2019-03-04T19:26:53.887Z,98242.70
2019-03-04T19:29:22.274Z,98237.02
2019-03-04T19:31:51.096Z,98240.95
2019-03-04T19:34:19.552Z,98239.22
2019-03-04T19:36:47.944Z,98245.73
2019-03-04T19:39:16.337Z,98259.71
2019-03-04T19:41:44.720Z,98271.46
2019-03-04T19:44:13.141Z,98292.90
2019-03-04T19:46:41.529Z,98312.91
2019-03-04T19:49:09.986Z,98312.49
2019-03-04T19:51:38.453Z,98320.77
2019-03-04T19:54:07.183Z,98313.77
2019-03-04T19:56:35.603Z,98316.34
2019-03-04T19:59:04.063Z,98318.98
2019-03-04T20:01:32.519Z,98322.45
2019-03-04T20:04:00.976Z,98321.11
2019-03-04T20:06:29.533Z,98320.67
2019-03-04T20:08:58.009Z,98321.96
2019-03-04T20:11:26.400Z,98326.75
2019-03-04T20:13:54.776Z,98314.98
2019-03-04T20:16:23.706Z,98325.02
2019-03-04T20:18:52.134Z,98328.07
2019-03-04T20:21:20.578Z,98333.29
2019-03-04T20:23:48.963Z,98328.09
2019-03-04T20:26:17.349Z,98330.69
2019-03-04T20:28:45.746Z,98337.66
2019-03-04T20:31:14.127Z,98338.09
2019-03-04T20:33:44.920Z,98328.09
2019-03-04T20:36:13.085Z,98333.73
2019-03-04T20:38:44.283Z,98333.73
2019-03-04T20:41:12.752Z,98342.91
2019-03-04T20:43:41.125Z,98345.55
2019-03-04T20:46:09.542Z,98352.05
2019-03-04T20:48:39.551Z,98355.55
2019-03-04T20:51:07.972Z,98346.85
2019-03-04T20:53:36.355Z,98357.31
2019-03-04T20:56:04.911Z,98356.42
2019-03-04T20:58:33.428Z,98357.74
2019-03-04T21:01:01.984Z,98367.80
2019-03-04T21:03:35.001Z,98371.28
2019-03-04T21:06:00.995Z,98373.89
2019-03-04T21:08:29.384Z,98373.04
2019-03-04T21:10:58.348Z,98376.52
2019-03-04T21:13:35.163Z,98376.53
2019-03-04T21:15:56.923Z,98373.93
2019-03-04T21:18:25.483Z,98373.04
2019-03-04T21:20:53.940Z,98377.42
2019-03-04T21:23:22.868Z,98390.94
2019-03-04T21:25:54.264Z,98385.27
2019-03-04T21:28:41.264Z,98385.23
2019-03-04T21:31:29.216Z,98391.37
2019-03-04T21:34:11.084Z,98396.16
2019-03-04T21:37:04.052Z,98414.08
2019-03-04T21:39:36.799Z,98415.39
2019-03-04T21:42:17.356Z,98430.20
2019-03-04T21:44:51.583Z,98432.38
2019-03-04T21:47:51.645Z,98438.92
2019-03-04T21:53:08.888Z,98434.58
2019-03-04T21:55:43.293Z,98446.32
2019-03-04T21:58:11.727Z,98434.55
2019-03-04T22:00:40.452Z,98441.11
2019-03-04T22:03:14.606Z,98448.92
2019-03-04T22:05:50.286Z,98442.38
2019-03-04T22:08:14.222Z,98447.18
2019-03-04T22:10:42.712Z,98456.73
2019-03-04T22:13:11.113Z,98461.53
2019-03-04T22:15:39.564Z,98472.84
2019-03-04T22:18:08.291Z,98464.11
2019-03-04T22:20:36.748Z,98458.91
2019-03-04T22:23:05.435Z,98462.80
2019-03-04T22:25:33.855Z,98472.39
2019-03-04T22:28:02.297Z,98466.28
2019-03-04T22:30:31.097Z,98477.59
2019-03-04T22:32:59.482Z,98484.53
2019-03-04T22:35:28.507Z,98491.97
2019-03-04T22:37:56.888Z,98487.15
2019-03-04T22:40:27.420Z,98486.73
2019-03-04T22:42:55.812Z,98479.30
2019-03-04T22:45:24.304Z,98486.28
2019-03-04T22:47:53.357Z,98487.13
2019-03-04T22:50:22.689Z,98484.48
2019-03-04T22:52:51.157Z,98483.19
2019-03-04T22:55:25.411Z,98489.28
2019-03-04T22:57:53.799Z,98492.34
2019-03-04T23:00:54.136Z,98487.06
2019-03-04T23:03:24.861Z,98501.02
2019-03-04T23:05:59.218Z,98503.17
2019-03-04T23:08:27.616Z,98495.80
2019-03-04T23:10:56.004Z,98507.10
2019-03-04T23:13:27.441Z,98499.28
2019-03-04T23:15:57.229Z,98493.63
2019-03-04T23:18:25.584Z,98495.34
2019-03-04T23:20:53.988Z,98503.19
2019-03-04T23:23:22.365Z,98496.23
2019-03-04T23:25:50.823Z,98492.72
2019-03-04T23:28:19.484Z,98493.63
2019-03-04T23:30:47.896Z,98494.97
2019-03-04T23:33:16.285Z,98487.11
2019-03-04T23:35:45.130Z,98486.66
2019-03-04T23:38:13.531Z,98494.95
2019-03-04T23:40:41.912Z,98497.98
2019-03-04T23:43:10.372Z,98489.27
2019-03-04T23:45:39.285Z,98494.95
2019-03-04T23:48:07.672Z,98487.95
2019-03-04T23:50:36.132Z,98486.64
2019-03-04T23:53:04.515Z,98488.84
2019-03-04T23:55:32.932Z,98487.95
2019-03-04T23:58:01.329Z,98481.44
